createdAt,value
2023-05-02T00:00:28.187Z,6.45
2023-05-02T00:01:28.152Z,6.50
2023-05-02T00:02:28.312Z,6.47
2023-05-02T00:03:28.264Z,6.53
2023-05-02T00:04:28.209Z,6.50
2023-05-02T00:05:28.177Z,6.42
2023-05-02T00:06:28.308Z,6.40
2023-05-02T00:07:28.225Z,6.34
2023-05-02T00:08:28.198Z,6.29
2023-05-02T00:09:28.216Z,6.37
2023-05-02T00:10:28.217Z,6.34
2023-05-02T00:11:28.232Z,6.19
2023-05-02T00:12:28.244Z,6.41
2023-05-02T00:13:28.251Z,6.22
2023-05-02T00:14:28.251Z,6.24
2023-05-02T00:15:28.256Z,6.27
2023-05-02T00:16:28.301Z,6.31
2023-05-02T00:17:28.275Z,6.32
2023-05-02T00:18:28.258Z,6.08
2023-05-02T00:19:28.271Z,6.20
2023-05-02T00:20:28.289Z,6.07
2023-05-02T00:21:28.376Z,6.20
2023-05-02T00:22:28.407Z,6.19
2023-05-02T00:23:28.411Z,6.05
2023-05-02T00:24:28.443Z,6.17
2023-05-02T00:25:28.475Z,6.20
2023-05-02T00:26:28.502Z,6.11
2023-05-02T00:27:28.564Z,6.20
2023-05-02T00:28:28.689Z,6.09
2023-05-02T00:29:28.791Z,6.01
2023-05-02T00:30:28.897Z,6.11
2023-05-02T00:31:28.951Z,6.07
2023-05-02T00:32:28.985Z,6.11
2023-05-02T00:33:29.056Z,6.05
2023-05-02T00:34:29.002Z,5.96
2023-05-02T00:35:29.027Z,6.00
2023-05-02T00:36:29.055Z,6.02
2023-05-02T00:37:29.043Z,5.97
2023-05-02T00:38:29.063Z,5.97
2023-05-02T00:39:29.098Z,6.11
2023-05-02T00:40:29.116Z,5.92
2023-05-02T00:41:29.133Z,5.93
2023-05-02T00:42:29.126Z,5.93
2023-05-02T00:43:29.110Z,5.98
2023-05-02T00:44:29.113Z,6.00
2023-05-02T00:45:29.110Z,5.94
2023-05-02T00:46:29.192Z,6.02
2023-05-02T00:47:29.110Z,6.00
2023-05-02T00:48:29.101Z,5.93
2023-05-02T00:49:29.103Z,5.92
2023-05-02T00:50:29.111Z,5.99
2023-05-02T00:51:29.113Z,5.92
2023-05-02T00:52:29.118Z,5.93
2023-05-02T00:53:29.196Z,5.86
2023-05-02T00:54:29.101Z,5.89
2023-05-02T00:55:29.101Z,5.84
2023-05-02T00:56:29.197Z,5.83
2023-05-02T00:57:29.102Z,5.89
2023-05-02T00:58:29.141Z,5.81
2023-05-02T00:59:29.108Z,5.83
2023-05-02T01:00:29.134Z,5.71
2023-05-02T01:01:29.179Z,5.72
2023-05-02T01:02:29.189Z,5.77
2023-05-02T01:03:29.417Z,5.68
2023-05-02T01:04:29.204Z,5.68
2023-05-02T01:05:29.281Z,5.78
2023-05-02T01:06:29.421Z,5.70
2023-05-02T01:07:29.314Z,5.68
2023-05-02T01:08:29.341Z,5.72
2023-05-02T01:09:29.363Z,5.79
2023-05-02T01:10:29.381Z,5.65
2023-05-02T01:11:29.412Z,5.63
2023-05-02T01:12:29.444Z,5.67
2023-05-02T01:13:29.469Z,5.63
2023-05-02T01:14:29.470Z,5.56
2023-05-02T01:15:29.518Z,5.63
2023-05-02T01:16:29.576Z,5.59
2023-05-02T01:17:29.588Z,5.58
2023-05-02T01:18:29.566Z,5.67
2023-05-02T01:19:29.621Z,5.64
2023-05-02T01:20:29.677Z,5.67
2023-05-02T01:21:29.677Z,5.58
2023-05-02T01:22:29.696Z,5.47
2023-05-02T01:23:29.711Z,5.50
2023-05-02T01:24:29.759Z,5.62
2023-05-02T01:25:29.773Z,5.51
2023-05-02T01:26:29.785Z,5.45
2023-05-02T01:27:29.825Z,5.56
2023-05-02T01:28:29.827Z,5.51
2023-05-02T01:29:29.852Z,5.53
2023-05-02T01:30:29.877Z,5.51
2023-05-02T01:31:29.946Z,5.62
2023-05-02T01:32:29.968Z,5.41
2023-05-02T01:33:29.946Z,5.44
2023-05-02T01:34:29.964Z,5.48
2023-05-02T01:35:30.043Z,5.43
2023-05-02T01:36:30.069Z,5.41
2023-05-02T01:37:30.098Z,5.42
2023-05-02T01:38:30.108Z,5.35
2023-05-02T01:39:30.137Z,5.42
2023-05-02T01:40:30.190Z,5.41
2023-05-02T01:41:30.211Z,5.40
2023-05-02T01:42:30.223Z,5.40
2023-05-02T01:43:30.239Z,5.40
2023-05-02T01:44:30.276Z,5.27
2023-05-02T01:45:30.306Z,5.29
2023-05-02T01:46:30.409Z,5.33
2023-05-02T01:47:30.417Z,5.32
2023-05-02T01:48:30.402Z,5.36
2023-05-02T01:49:30.444Z,5.24
2023-05-02T01:50:30.457Z,5.30
2023-05-02T01:51:30.559Z,5.20
2023-05-02T01:52:30.582Z,5.28
2023-05-02T01:53:30.590Z,5.22
2023-05-02T01:54:30.631Z,5.19
2023-05-02T01:55:30.653Z,5.21
2023-05-02T01:56:30.673Z,5.10
2023-05-02T01:57:30.707Z,5.25
2023-05-02T01:58:30.712Z,5.25
2023-05-02T01:59:30.744Z,5.12
2023-05-02T02:00:30.780Z,5.22
2023-05-02T02:01:30.941Z,5.06
2023-05-02T02:02:30.904Z,5.16
2023-05-02T02:03:30.981Z,5.06
2023-05-02T02:04:31.048Z,5.16
2023-05-02T02:05:31.003Z,5.07
2023-05-02T02:06:31.089Z,5.16
2023-05-02T02:07:31.071Z,5.13
2023-05-02T02:08:31.094Z,5.07
2023-05-02T02:09:31.155Z,5.11
2023-05-02T02:10:31.203Z,5.17
2023-05-02T02:11:31.238Z,5.08
2023-05-02T02:12:31.273Z,5.02
2023-05-02T02:13:31.286Z,5.00
2023-05-02T02:14:31.281Z,5.01
2023-05-02T02:15:31.286Z,5.02
2023-05-02T02:16:31.365Z,5.03
2023-05-02T02:17:31.333Z,5.08
2023-05-02T02:18:31.302Z,5.02
2023-05-02T02:19:31.294Z,5.18
2023-05-02T02:20:31.297Z,5.06
2023-05-02T02:21:31.307Z,5.04
2023-05-02T02:22:31.304Z,5.03
2023-05-02T02:23:31.313Z,4.97
2023-05-02T02:24:31.311Z,5.08
2023-05-02T02:25:31.334Z,5.06
2023-05-02T02:26:31.326Z,5.01
2023-05-02T02:27:31.333Z,4.95
2023-05-02T02:28:31.335Z,4.95
2023-05-02T02:29:31.321Z,4.96
2023-05-02T02:30:31.328Z,4.98
2023-05-02T02:31:31.362Z,4.94
2023-05-02T02:32:31.374Z,4.86
2023-05-02T02:33:31.378Z,4.92
2023-05-02T02:34:31.383Z,4.89
2023-05-02T02:35:31.393Z,4.89
2023-05-02T02:36:31.389Z,4.96
2023-05-02T02:37:31.393Z,4.86
2023-05-02T02:38:31.406Z,4.87
2023-05-02T02:39:31.476Z,4.85
2023-05-02T02:40:31.487Z,4.80
2023-05-02T02:41:31.525Z,4.84
2023-05-02T02:42:31.544Z,4.82
2023-05-02T02:43:31.577Z,4.82
2023-05-02T02:44:31.597Z,4.69
2023-05-02T02:45:31.688Z,4.78
2023-05-02T02:46:31.819Z,4.68
2023-05-02T02:47:31.772Z,4.55
2023-05-02T02:48:31.786Z,4.31
2023-05-02T02:49:31.798Z,3.95
2023-05-02T02:50:31.816Z,3.63
2023-05-02T02:51:31.885Z,3.26
2023-05-02T02:52:31.900Z,2.74
2023-05-02T02:53:31.932Z,2.37
2023-05-02T02:54:32.032Z,2.20
2023-05-02T02:55:32.063Z,1.86
2023-05-02T02:56:32.075Z,1.66
2023-05-02T02:57:32.141Z,1.45
2023-05-02T02:58:32.221Z,1.24
2023-05-02T02:59:32.284Z,1.09
2023-05-02T03:00:32.362Z,0.97
2023-05-02T03:01:32.524Z,0.84
2023-05-02T03:02:32.575Z,0.77
2023-05-02T03:03:32.601Z,0.69
2023-05-02T03:04:32.655Z,0.63
2023-05-02T03:05:32.742Z,0.58
2023-05-02T03:06:32.853Z,0.53
2023-05-02T03:07:32.880Z,0.50
2023-05-02T03:08:32.926Z,0.49
2023-05-02T03:09:33.000Z,0.50
2023-05-02T03:10:33.015Z,0.50
2023-05-02T03:11:33.075Z,0.51
2023-05-02T03:12:33.104Z,0.50
2023-05-02T03:13:33.137Z,0.50
2023-05-02T03:14:33.188Z,0.50
2023-05-02T03:15:33.211Z,0.50
2023-05-02T03:16:33.383Z,0.50
2023-05-02T03:17:33.276Z,0.50
2023-05-02T03:18:33.272Z,0.51
2023-05-02T03:19:33.306Z,0.50
2023-05-02T03:20:33.307Z,0.50
2023-05-02T03:21:33.341Z,0.50
2023-05-02T03:22:33.347Z,0.50
2023-05-02T03:23:33.389Z,0.51
2023-05-02T03:24:33.421Z,0.51
2023-05-02T03:25:33.425Z,0.50
2023-05-02T03:26:33.455Z,0.50
2023-05-02T03:27:33.481Z,0.50
2023-05-02T03:28:33.502Z,0.50
2023-05-02T03:29:33.532Z,0.51
2023-05-02T03:30:33.569Z,0.50
2023-05-02T03:31:33.652Z,0.51
2023-05-02T03:32:33.637Z,0.51
2023-05-02T03:33:33.643Z,0.50
2023-05-02T03:34:33.676Z,0.51
2023-05-02T03:35:33.706Z,0.50
2023-05-02T03:36:33.740Z,0.51
2023-05-02T03:37:33.765Z,0.50
2023-05-02T03:38:33.807Z,0.50
2023-05-02T03:39:33.844Z,0.51
2023-05-02T03:40:33.876Z,0.50
2023-05-02T03:41:33.917Z,0.50
2023-05-02T03:42:33.931Z,0.50
2023-05-02T03:43:33.969Z,0.50
2023-05-02T03:44:34.032Z,0.51
2023-05-02T03:45:34.048Z,0.54
2023-05-02T03:46:34.101Z,0.53
2023-05-02T03:47:34.146Z,0.52
2023-05-02T03:48:34.157Z,0.50
2023-05-02T03:49:34.187Z,0.54
2023-05-02T03:50:34.235Z,0.51
2023-05-02T03:51:34.280Z,0.51
2023-05-02T03:52:34.338Z,0.50
2023-05-02T03:53:34.388Z,0.51
2023-05-02T03:54:34.383Z,0.51
2023-05-02T03:55:34.426Z,0.51
2023-05-02T03:56:34.469Z,0.53
2023-05-02T03:57:34.575Z,0.51
2023-05-02T03:58:34.558Z,0.50
2023-05-02T03:59:34.610Z,0.50
2023-05-02T04:00:34.635Z,0.53
2023-05-02T04:01:34.739Z,0.50
2023-05-02T04:02:34.844Z,0.53
2023-05-02T04:03:34.897Z,0.50
2023-05-02T04:04:34.835Z,0.50
2023-05-02T04:05:34.797Z,0.50
2023-05-02T04:06:34.882Z,0.48
2023-05-02T04:07:34.817Z,0.47
2023-05-02T04:08:34.819Z,0.45
2023-05-02T04:09:34.836Z,0.52
2023-05-02T04:10:34.858Z,0.50
2023-05-02T04:11:34.869Z,0.51
2023-05-02T04:12:34.880Z,0.52
2023-05-02T04:13:34.886Z,0.50
2023-05-02T04:14:34.897Z,0.53
2023-05-02T04:15:34.932Z,0.52
2023-05-02T04:16:34.949Z,0.54
2023-05-02T04:17:34.949Z,0.51
2023-05-02T04:18:34.936Z,0.51
2023-05-02T04:19:34.949Z,0.51
2023-05-02T04:20:34.998Z,0.54
2023-05-02T04:21:35.066Z,0.51
2023-05-02T04:22:35.116Z,0.52
2023-05-02T04:23:35.188Z,0.52
2023-05-02T04:24:35.230Z,0.53
2023-05-02T04:25:35.269Z,0.51
2023-05-02T04:26:35.331Z,0.50
2023-05-02T04:27:35.382Z,0.52
2023-05-02T04:28:35.429Z,0.52
2023-05-02T04:29:35.465Z,0.53
2023-05-02T04:30:35.530Z,0.52
2023-05-02T04:31:35.621Z,0.55
2023-05-02T04:32:35.696Z,0.55
2023-05-02T04:33:35.597Z,0.53
2023-05-02T04:34:35.642Z,0.52
2023-05-02T04:35:35.639Z,0.54
2023-05-02T04:36:35.636Z,0.52
2023-05-02T04:37:35.657Z,0.51
2023-05-02T04:38:35.661Z,0.54
2023-05-02T04:39:35.659Z,0.52
2023-05-02T04:40:35.674Z,0.52
2023-05-02T04:41:35.693Z,0.53
2023-05-02T04:42:35.743Z,0.53
2023-05-02T04:43:35.695Z,0.51
2023-05-02T04:44:35.747Z,0.54
2023-05-02T04:45:35.806Z,0.51
2023-05-02T04:46:35.956Z,0.52
2023-05-02T04:47:36.020Z,0.52
2023-05-02T04:48:36.014Z,0.50
2023-05-02T04:49:36.065Z,0.53
2023-05-02T04:50:36.141Z,0.53
2023-05-02T04:51:36.212Z,0.53
2023-05-02T04:52:36.275Z,0.50
2023-05-02T04:53:36.336Z,0.54
2023-05-02T04:54:36.373Z,0.55
2023-05-02T04:55:36.447Z,0.53
2023-05-02T04:56:36.637Z,0.54
2023-05-02T04:57:36.574Z,0.54
2023-05-02T04:58:36.634Z,0.54
2023-05-02T04:59:36.696Z,0.54
2023-05-02T05:00:36.760Z,0.52
2023-05-02T05:01:36.841Z,0.53
2023-05-02T05:02:36.952Z,0.53
2023-05-02T05:03:37.120Z,0.53
2023-05-02T05:04:36.964Z,0.53
2023-05-02T05:05:36.984Z,0.52
2023-05-02T05:06:37.042Z,0.53
2023-05-02T05:07:36.982Z,0.53
2023-05-02T05:08:37.003Z,0.66
2023-05-02T05:09:36.994Z,0.83
2023-05-02T05:10:37.010Z,1.01
2023-05-02T05:11:37.010Z,1.15
2023-05-02T05:12:37.030Z,1.34
2023-05-02T05:13:37.043Z,1.53
2023-05-02T05:14:37.118Z,1.58
2023-05-02T05:15:37.141Z,1.75
2023-05-02T05:16:37.209Z,1.95
2023-05-02T05:17:37.260Z,2.13
2023-05-02T05:18:37.297Z,2.29
2023-05-02T05:19:37.357Z,2.40
2023-05-02T05:20:37.418Z,2.55
2023-05-02T05:21:37.446Z,2.72
2023-05-02T05:22:37.502Z,3.05
2023-05-02T05:23:37.569Z,3.08
2023-05-02T05:24:37.609Z,3.36
2023-05-02T05:25:37.665Z,3.51
2023-05-02T05:26:37.712Z,3.62
2023-05-02T05:27:37.781Z,3.86
2023-05-02T05:28:37.807Z,4.24
2023-05-02T05:29:37.901Z,4.31
2023-05-02T05:30:37.871Z,4.61
2023-05-02T05:31:37.999Z,4.64
2023-05-02T05:32:38.135Z,4.91
2023-05-02T05:33:38.059Z,5.43
2023-05-02T05:34:38.040Z,6.06
2023-05-02T05:35:38.075Z,6.85
2023-05-02T05:36:38.099Z,7.15
2023-05-02T05:37:38.128Z,7.80
2023-05-02T05:38:38.143Z,8.25
2023-05-02T05:39:38.159Z,8.95
2023-05-02T05:40:38.214Z,9.41
2023-05-02T05:41:38.318Z,10.67
2023-05-02T05:42:38.310Z,12.19
2023-05-02T05:43:38.503Z,12.76
2023-05-02T05:44:38.445Z,13.40
2023-05-02T05:45:38.506Z,14.15
2023-05-02T05:46:38.633Z,14.02
2023-05-02T05:47:38.932Z,14.66
2023-05-02T05:48:38.680Z,15.10
2023-05-02T05:49:39.070Z,14.91
2023-05-02T05:50:38.756Z,15.52
2023-05-02T05:51:38.775Z,15.42
2023-05-02T05:52:38.845Z,14.88
2023-05-02T05:53:38.898Z,16.98
2023-05-02T05:54:38.949Z,17.57
2023-05-02T05:55:40.797Z,18.65
2023-05-02T05:56:39.060Z,20.09
2023-05-02T05:57:39.044Z,23.02
2023-05-02T05:58:39.060Z,23.08
2023-05-02T05:59:39.060Z,23.40
2023-05-02T06:00:39.121Z,23.17
2023-05-02T06:01:39.078Z,23.75
2023-05-02T06:02:39.330Z,25.78
2023-05-02T06:03:39.221Z,29.94
2023-05-02T06:04:39.140Z,36.34
2023-05-02T06:05:39.099Z,35.63
2023-05-02T06:06:39.134Z,38.54
2023-05-02T06:07:39.108Z,42.74
2023-05-02T06:08:39.111Z,44.14
2023-05-02T06:09:39.126Z,44.35
2023-05-02T06:10:39.131Z,45.03
2023-05-02T06:11:39.152Z,46.41
2023-05-02T06:12:39.152Z,48.32
2023-05-02T06:13:39.150Z,44.41
2023-05-02T06:14:39.163Z,45.73
2023-05-02T06:15:39.161Z,44.61
2023-05-02T06:16:39.270Z,46.09
2023-05-02T06:17:39.293Z,49.22
2023-05-02T06:18:39.182Z,56.68
2023-05-02T06:19:39.153Z,67.69
2023-05-02T06:20:39.171Z,76.84
2023-05-02T06:21:39.184Z,80.36
2023-05-02T06:22:39.225Z,90.98
2023-05-02T06:23:39.178Z,94.14
2023-05-02T06:24:39.180Z,98.95
2023-05-02T06:25:39.190Z,99.03
2023-05-02T06:26:39.193Z,98.71
2023-05-02T06:27:39.226Z,99.47
2023-05-02T06:28:39.181Z,103.53
2023-05-02T06:29:39.181Z,112.94
2023-05-02T06:30:39.201Z,120.01
2023-05-02T06:31:39.214Z,125.26
2023-05-02T06:32:39.240Z,125.35
2023-05-02T06:33:39.238Z,124.43
2023-05-02T06:34:39.185Z,126.10
2023-05-02T06:35:39.188Z,122.18
2023-05-02T06:36:39.205Z,128.63
2023-05-02T06:37:39.203Z,129.80
2023-05-02T06:38:39.207Z,128.51
2023-05-02T06:39:39.228Z,130.58
2023-05-02T06:40:39.184Z,128.89
2023-05-02T06:41:39.182Z,135.45
2023-05-02T06:42:39.189Z,129.28
2023-05-02T06:43:39.243Z,64.46
2023-05-02T06:44:39.342Z,18.96
2023-05-02T06:45:39.413Z,8.80
2023-05-02T06:46:39.430Z,5.70
2023-05-02T06:47:39.491Z,5.20
2023-05-02T06:48:39.433Z,5.21
2023-05-02T06:49:39.445Z,5.28
2023-05-02T06:50:39.458Z,5.81
2023-05-02T06:51:39.468Z,6.81
2023-05-02T06:52:39.609Z,8.83
2023-05-02T06:53:39.501Z,10.08
2023-05-02T06:54:39.514Z,10.81
2023-05-02T06:55:39.488Z,12.73
2023-05-02T06:56:39.492Z,14.51
2023-05-02T06:57:39.602Z,16.48
2023-05-02T06:58:39.590Z,17.40
2023-05-02T06:59:39.552Z,18.65
2023-05-02T07:00:39.667Z,20.22
2023-05-02T07:01:39.807Z,21.04
2023-05-02T07:02:39.605Z,25.05
2023-05-02T07:03:39.692Z,26.69
2023-05-02T07:04:39.697Z,28.79
2023-05-02T07:05:39.656Z,30.41
2023-05-02T07:06:39.829Z,31.36
2023-05-02T07:07:39.838Z,31.91
2023-05-02T07:08:39.773Z,32.62
2023-05-02T07:09:39.810Z,33.83
2023-05-02T07:10:39.889Z,35.44
2023-05-02T07:11:40.036Z,36.40
2023-05-02T07:12:39.934Z,34.05
2023-05-02T07:13:39.961Z,35.09
2023-05-02T07:14:40.016Z,33.55
2023-05-02T07:15:40.019Z,31.99
2023-05-02T07:16:40.125Z,32.80
2023-05-02T07:17:40.120Z,29.14
2023-05-02T07:18:40.135Z,32.38
2023-05-02T07:19:40.189Z,32.98
2023-05-02T07:20:40.325Z,33.10
2023-05-02T07:21:40.229Z,33.89
2023-05-02T07:22:40.305Z,34.94
2023-05-02T07:23:40.388Z,36.62
2023-05-02T07:24:40.487Z,38.13
2023-05-02T07:25:40.420Z,38.63
2023-05-02T07:26:40.432Z,38.95
2023-05-02T07:27:40.536Z,37.71
2023-05-02T07:28:40.510Z,39.49
2023-05-02T07:29:40.654Z,36.94
2023-05-02T07:30:40.522Z,39.03
2023-05-02T07:31:40.621Z,36.54
2023-05-02T07:32:40.679Z,36.94
2023-05-02T07:33:40.641Z,36.56
2023-05-02T07:34:40.649Z,34.01
2023-05-02T07:35:40.661Z,33.44
2023-05-02T07:36:40.665Z,31.44
2023-05-02T07:37:40.788Z,30.01
2023-05-02T07:38:40.748Z,30.36
2023-05-02T07:39:40.856Z,30.20
2023-05-02T07:40:40.811Z,28.17
2023-05-02T07:41:40.806Z,26.30
2023-05-02T07:42:40.854Z,24.56
2023-05-02T07:43:40.925Z,24.51
2023-05-02T07:44:40.965Z,21.42
2023-05-02T07:45:40.999Z,18.07
2023-05-02T07:46:41.089Z,15.11
2023-05-02T07:47:40.986Z,14.62
2023-05-02T07:48:40.987Z,12.53
2023-05-02T07:49:41.003Z,11.11
2023-05-02T07:50:40.998Z,10.08
2023-05-02T07:51:41.022Z,9.96
2023-05-02T07:52:41.040Z,9.37
2023-05-02T07:53:41.025Z,8.72
2023-05-02T07:54:41.019Z,8.02
2023-05-02T07:55:41.041Z,7.37
2023-05-02T07:56:41.039Z,6.94
2023-05-02T07:57:41.046Z,7.20
2023-05-02T07:58:41.053Z,6.64
2023-05-02T07:59:41.055Z,6.63
2023-05-02T08:00:41.060Z,6.21
2023-05-02T08:01:41.151Z,6.27
2023-05-02T08:02:41.186Z,6.63
2023-05-02T08:03:41.235Z,6.42
2023-05-02T08:04:41.189Z,6.18
2023-05-02T08:05:41.109Z,6.20
2023-05-02T08:06:41.153Z,6.01
2023-05-02T08:07:41.104Z,6.01
2023-05-02T08:08:41.135Z,5.86
2023-05-02T08:09:41.198Z,5.70
2023-05-02T08:10:41.127Z,6.01
2023-05-02T08:11:41.145Z,5.84
2023-05-02T08:12:41.173Z,5.79
2023-05-02T08:13:41.176Z,5.42
2023-05-02T08:14:41.166Z,5.51
2023-05-02T08:15:41.216Z,5.00
2023-05-02T08:16:42.086Z,5.27
2023-05-02T08:17:41.223Z,4.99
2023-05-02T08:18:41.231Z,4.97
2023-05-02T08:19:41.210Z,4.55
2023-05-02T08:20:41.203Z,3.81
2023-05-02T08:21:41.213Z,3.50
2023-05-02T08:22:41.217Z,3.18
2023-05-02T08:23:41.241Z,2.96
2023-05-02T08:24:41.219Z,2.91
2023-05-02T08:25:41.231Z,2.75
2023-05-02T08:26:41.241Z,2.45
2023-05-02T08:27:41.241Z,2.42
2023-05-02T08:28:41.316Z,2.21
2023-05-02T08:29:41.277Z,1.64
2023-05-02T08:30:41.261Z,1.31
2023-05-02T08:31:41.322Z,1.09
2023-05-02T08:32:41.356Z,0.97
2023-05-02T08:33:41.340Z,0.99
2023-05-02T08:34:41.289Z,0.99
2023-05-02T08:35:41.322Z,1.01
2023-05-02T08:36:41.358Z,1.08
2023-05-02T08:37:41.342Z,1.24
2023-05-02T08:38:41.341Z,1.71
2023-05-02T08:39:41.355Z,2.16
2023-05-02T08:40:42.687Z,2.58
2023-05-02T08:41:41.438Z,2.95
2023-05-02T08:42:41.405Z,3.02
2023-05-02T08:43:41.380Z,3.20
2023-05-02T08:44:41.417Z,3.39
2023-05-02T08:45:41.453Z,3.89
2023-05-02T08:46:41.523Z,4.35
2023-05-02T08:47:41.556Z,4.38
2023-05-02T08:48:41.637Z,4.34
2023-05-02T08:49:41.553Z,4.35
2023-05-02T08:50:41.648Z,4.39
2023-05-02T08:51:42.387Z,4.41
2023-05-02T08:52:41.537Z,4.54
2023-05-02T08:53:41.550Z,4.64
2023-05-02T08:54:41.546Z,4.27
2023-05-02T08:55:41.534Z,4.52
2023-05-02T08:56:41.536Z,4.82
2023-05-02T08:57:41.529Z,4.45
2023-05-02T08:58:41.571Z,3.86
2023-05-02T08:59:41.515Z,3.41
2023-05-02T09:00:41.516Z,3.55
2023-05-02T09:01:41.665Z,3.41
2023-05-02T09:02:41.588Z,3.24
2023-05-02T09:03:41.574Z,2.99
2023-05-02T09:04:41.703Z,2.92
2023-05-02T09:05:41.563Z,2.92
2023-05-02T09:06:41.571Z,2.91
2023-05-02T09:07:41.525Z,2.92
2023-05-02T09:08:41.562Z,2.91
2023-05-02T09:09:41.536Z,2.91
2023-05-02T09:10:41.574Z,2.82
2023-05-02T09:11:41.523Z,2.81
2023-05-02T09:12:41.562Z,2.90
2023-05-02T09:13:41.863Z,3.15
2023-05-02T09:14:41.553Z,2.95
2023-05-02T09:15:41.544Z,2.95
2023-05-02T09:16:41.608Z,2.82
2023-05-02T09:17:41.557Z,2.95
2023-05-02T09:18:41.565Z,2.97
2023-05-02T09:19:41.551Z,2.89
2023-05-02T09:20:41.546Z,2.88
2023-05-02T09:21:41.569Z,2.85
2023-05-02T09:22:41.553Z,2.90
2023-05-02T09:23:41.569Z,3.07
2023-05-02T09:24:41.555Z,3.50
2023-05-02T09:25:41.542Z,4.26
2023-05-02T09:26:41.531Z,4.45
2023-05-02T09:27:41.518Z,4.75
2023-05-02T09:28:41.557Z,4.86
2023-05-02T09:29:41.532Z,4.93
2023-05-02T09:30:41.575Z,4.81
2023-05-02T09:31:54.914Z,4.79
2023-05-02T09:32:42.522Z,4.79
2023-05-02T09:33:41.541Z,4.80
2023-05-02T09:34:41.508Z,4.65
2023-05-02T09:35:41.541Z,4.85
2023-05-02T09:36:41.532Z,5.27
2023-05-02T09:37:41.515Z,5.40
2023-05-02T09:38:41.598Z,5.50
2023-05-02T09:39:41.500Z,6.08
2023-05-02T09:40:41.516Z,6.23
2023-05-02T09:41:41.528Z,6.24
2023-05-02T09:42:41.475Z,6.35
2023-05-02T09:43:41.487Z,6.58
2023-05-02T09:44:41.491Z,6.93
2023-05-02T09:45:41.647Z,7.74
2023-05-02T09:46:41.815Z,7.96
2023-05-02T09:47:41.787Z,8.24
2023-05-02T09:48:41.480Z,8.55
2023-05-02T09:49:41.541Z,8.95
2023-05-02T09:50:41.491Z,8.99
2023-05-02T09:51:41.477Z,9.27
2023-05-02T09:52:41.458Z,9.87
2023-05-02T09:53:41.448Z,10.95
2023-05-02T09:54:41.471Z,12.85
2023-05-02T09:55:41.427Z,13.74
2023-05-02T09:56:41.425Z,13.83
2023-05-02T09:57:41.428Z,12.74
2023-05-02T09:58:41.728Z,10.66
2023-05-02T09:59:41.749Z,10.02
2023-05-02T10:00:41.580Z,9.00
2023-05-02T10:01:41.452Z,7.74
2023-05-02T10:02:41.446Z,7.21
2023-05-02T10:03:41.569Z,6.58
2023-05-02T10:04:41.452Z,6.06
2023-05-02T10:05:41.384Z,5.75
2023-05-02T10:06:41.645Z,5.25
2023-05-02T10:07:41.396Z,4.81
2023-05-02T10:08:41.354Z,5.10
2023-05-02T10:09:41.374Z,4.94
2023-05-02T10:10:41.357Z,5.08
2023-05-02T10:11:41.361Z,4.55
2023-05-02T10:12:41.378Z,4.24
2023-05-02T10:13:41.384Z,4.22
2023-05-02T10:14:41.543Z,4.02
2023-05-02T10:15:41.416Z,3.80
2023-05-02T10:16:41.411Z,3.49
2023-05-02T10:17:41.373Z,3.32
2023-05-02T10:18:41.355Z,3.13
2023-05-02T10:19:41.438Z,3.40
2023-05-02T10:20:41.431Z,3.78
2023-05-02T10:21:41.423Z,4.40
2023-05-02T10:22:41.462Z,4.93
2023-05-02T10:23:41.510Z,4.80
2023-05-02T10:24:41.616Z,4.34
2023-05-02T10:25:41.578Z,4.58
2023-05-02T10:26:41.554Z,4.43
2023-05-02T10:27:41.632Z,4.41
2023-05-02T10:28:41.672Z,4.75
2023-05-02T10:29:41.611Z,4.60
2023-05-02T10:30:41.597Z,4.87
2023-05-02T10:31:42.963Z,5.17
2023-05-02T10:32:41.835Z,5.30
2023-05-02T10:33:41.853Z,5.27
2023-05-02T10:34:41.821Z,5.34
2023-05-02T10:35:41.838Z,5.39
2023-05-02T10:36:41.852Z,5.45
2023-05-02T10:37:41.842Z,5.46
2023-05-02T10:38:41.894Z,5.05
2023-05-02T10:39:41.812Z,5.09
2023-05-02T10:40:41.819Z,5.60
2023-05-02T10:41:41.825Z,5.54
2023-05-02T10:42:41.830Z,5.61
2023-05-02T10:43:41.818Z,5.72
2023-05-02T10:44:41.814Z,5.60
2023-05-02T10:45:41.828Z,5.17
2023-05-02T10:46:41.845Z,5.43
2023-05-02T10:47:41.775Z,5.07
2023-05-02T10:48:42.177Z,5.26
2023-05-02T10:49:41.738Z,5.11
2023-05-02T10:50:41.723Z,5.35
2023-05-02T10:51:41.732Z,5.55
2023-05-02T10:52:41.698Z,5.47
2023-05-02T10:53:41.678Z,5.41
2023-05-02T10:54:41.681Z,5.09
2023-05-02T10:55:41.695Z,4.64
2023-05-02T10:56:41.761Z,4.48
2023-05-02T10:57:41.847Z,4.09
2023-05-02T10:58:41.947Z,3.93
2023-05-02T10:59:42.006Z,3.69
2023-05-02T11:00:42.134Z,3.33
2023-05-02T11:01:42.162Z,3.25
2023-05-02T11:02:42.309Z,3.33
2023-05-02T11:03:42.343Z,3.38
2023-05-02T11:04:42.419Z,3.37
2023-05-02T11:05:42.495Z,3.38
2023-05-02T11:06:42.615Z,3.03
2023-05-02T11:07:42.605Z,3.07
2023-05-02T11:08:42.658Z,3.10
2023-05-02T11:09:42.692Z,2.91
2023-05-02T11:10:42.727Z,3.16
2023-05-02T11:11:42.981Z,2.92
2023-05-02T11:12:42.786Z,3.11
2023-05-02T11:13:42.831Z,2.80
2023-05-02T11:14:42.839Z,2.58
2023-05-02T11:15:42.869Z,2.68
2023-05-02T11:16:42.985Z,2.68
2023-05-02T11:17:42.938Z,2.69
2023-05-02T11:18:42.965Z,2.54
2023-05-02T11:19:42.933Z,2.46
2023-05-02T11:20:42.892Z,2.65
2023-05-02T11:21:42.879Z,2.47
2023-05-02T11:22:42.850Z,2.66
2023-05-02T11:23:42.855Z,2.30
2023-05-02T11:24:42.869Z,2.25
2023-05-02T11:25:42.840Z,2.25
2023-05-02T11:26:42.838Z,2.57
2023-05-02T11:27:43.006Z,2.77
2023-05-02T11:28:42.850Z,3.12
2023-05-02T11:29:42.902Z,3.33
2023-05-02T11:30:42.812Z,3.34
2023-05-02T11:31:42.867Z,3.38
2023-05-02T11:32:42.860Z,3.37
2023-05-02T11:33:42.822Z,3.00
2023-05-02T11:34:42.762Z,2.94
2023-05-02T11:35:42.763Z,3.12
2023-05-02T11:36:42.773Z,3.17
2023-05-02T11:37:42.745Z,3.51
2023-05-02T11:38:42.747Z,3.61
2023-05-02T11:39:42.761Z,3.76
2023-05-02T11:40:42.714Z,3.91
2023-05-02T11:41:42.732Z,3.92
2023-05-02T11:42:42.756Z,3.82
2023-05-02T11:43:42.724Z,3.93
2023-05-02T11:44:42.724Z,4.09
2023-05-02T11:45:42.776Z,3.80
2023-05-02T11:46:42.728Z,3.75
2023-05-02T11:47:42.723Z,3.82
2023-05-02T11:48:42.710Z,4.10
2023-05-02T11:49:42.712Z,4.11
2023-05-02T11:50:48.841Z,3.97
2023-05-02T11:51:43.713Z,3.97
2023-05-02T11:52:42.746Z,4.02
2023-05-02T11:53:42.733Z,4.16
2023-05-02T11:54:42.684Z,4.42
2023-05-02T11:55:42.692Z,5.08
2023-05-02T11:56:42.698Z,5.16
2023-05-02T11:57:42.666Z,5.14
2023-05-02T11:58:42.682Z,5.18
2023-05-02T11:59:42.685Z,5.56
2023-05-02T12:00:42.693Z,5.46
2023-05-02T12:01:42.689Z,5.81
2023-05-02T12:02:42.790Z,6.23
2023-05-02T12:03:42.831Z,6.39
2023-05-02T12:04:42.671Z,6.12
2023-05-02T12:05:42.705Z,6.30
2023-05-02T12:06:42.673Z,6.75
2023-05-02T12:07:42.684Z,6.76
2023-05-02T12:08:42.672Z,7.21
2023-05-02T12:09:42.648Z,7.32
2023-05-02T12:10:42.651Z,7.69
2023-05-02T12:11:42.701Z,8.03
2023-05-02T12:12:42.775Z,8.24
2023-05-02T12:13:42.810Z,8.44
2023-05-02T12:14:42.833Z,8.72
2023-05-02T12:15:42.969Z,8.90
2023-05-02T12:16:42.983Z,8.89
2023-05-02T12:17:43.095Z,9.22
2023-05-02T12:18:43.113Z,9.13
2023-05-02T12:19:43.132Z,9.41
2023-05-02T12:20:43.159Z,9.77
2023-05-02T12:21:43.169Z,9.77
2023-05-02T12:22:43.175Z,9.80
2023-05-02T12:23:43.174Z,9.92
2023-05-02T12:24:43.151Z,10.18
2023-05-02T12:25:43.154Z,9.80
2023-05-02T12:26:43.165Z,9.88
2023-05-02T12:27:43.169Z,9.99
2023-05-02T12:28:43.176Z,10.33
2023-05-02T12:29:43.128Z,10.79
2023-05-02T12:30:43.117Z,11.03
2023-05-02T12:31:43.123Z,10.79
2023-05-02T12:32:43.136Z,10.96
2023-05-02T12:33:43.105Z,11.25
2023-05-02T12:34:43.147Z,10.99
2023-05-02T12:35:43.159Z,10.85
2023-05-02T12:36:43.231Z,11.37
2023-05-02T12:37:43.386Z,11.37
2023-05-02T12:38:43.351Z,11.42
2023-05-02T12:39:43.380Z,11.68
2023-05-02T12:40:43.455Z,11.85
2023-05-02T12:41:43.506Z,12.11
2023-05-02T12:42:43.534Z,12.58
2023-05-02T12:43:43.617Z,13.16
2023-05-02T12:44:43.699Z,13.08
2023-05-02T12:45:43.753Z,13.40
2023-05-02T12:46:43.779Z,13.70
2023-05-02T12:47:43.874Z,14.39
2023-05-02T12:48:44.926Z,14.74
2023-05-02T12:49:43.980Z,15.37
2023-05-02T12:50:44.031Z,15.42
2023-05-02T12:51:44.156Z,15.71
2023-05-02T12:52:44.112Z,16.03
2023-05-02T12:53:44.178Z,16.84
2023-05-02T12:54:44.596Z,16.92
2023-05-02T12:55:44.229Z,17.17
2023-05-02T12:56:44.291Z,17.49
2023-05-02T12:57:44.320Z,17.80
2023-05-02T12:58:44.394Z,18.39
2023-05-02T12:59:44.433Z,18.52
2023-05-02T13:00:46.517Z,18.96
2023-05-02T13:01:44.530Z,19.06
2023-05-02T13:02:44.527Z,19.45
2023-05-02T13:03:44.504Z,20.04
2023-05-02T13:04:44.440Z,20.45
2023-05-02T13:05:44.428Z,20.05
2023-05-02T13:06:45.169Z,20.87
2023-05-02T13:07:44.556Z,20.93
2023-05-02T13:08:44.603Z,20.93
2023-05-02T13:09:44.631Z,21.37
2023-05-02T13:10:44.668Z,21.52
2023-05-02T13:11:44.789Z,22.43
2023-05-02T13:12:45.146Z,22.34